createdAt,value
2017-08-30T00:00:20.625Z,66.90
2017-08-30T00:00:53.199Z,67.10
2017-08-30T00:01:26.497Z,67.20
2017-08-30T00:01:59.035Z,67.00
2017-08-30T00:02:31.556Z,66.80
2017-08-30T00:03:04.854Z,66.70
2017-08-30T00:03:37.421Z,66.70
2017-08-30T00:04:09.948Z,66.60
2017-08-30T00:04:42.511Z,66.60
2017-08-30T00:05:15.074Z,66.70
2017-08-30T00:05:47.617Z,66.60
2017-08-30T00:06:20.960Z,66.60
2017-08-30T00:06:53.494Z,66.50
2017-08-30T00:07:26.044Z,66.80
2017-08-30T00:07:58.592Z,66.90
2017-08-30T00:08:31.146Z,67.10
2017-08-30T00:09:03.693Z,67.20
2017-08-30T00:09:36.252Z,67.20
2017-08-30T00:10:08.771Z,67.20
2017-08-30T00:10:41.294Z,67.10
2017-08-30T00:11:13.812Z,66.80
2017-08-30T00:11:47.112Z,67.00
2017-08-30T00:12:19.635Z,67.00
2017-08-30T00:12:52.159Z,67.00
2017-08-30T00:13:24.703Z,66.30
2017-08-30T00:13:57.251Z,66.00
2017-08-30T00:14:30.568Z,65.80
2017-08-30T00:15:03.074Z,65.80
2017-08-30T00:15:35.629Z,66.20
2017-08-30T00:16:08.152Z,66.40
2017-08-30T00:16:40.681Z,66.30
2017-08-30T00:17:13.292Z,66.30
2017-08-30T00:17:45.819Z,66.40
2017-08-30T00:18:18.345Z,66.50
2017-08-30T00:18:50.883Z,66.60
2017-08-30T00:19:23.415Z,66.30
2017-08-30T00:19:56.704Z,66.40
2017-08-30T00:20:29.225Z,66.40
2017-08-30T00:21:02.538Z,66.80
2017-08-30T00:21:35.074Z,66.80
2017-08-30T00:22:07.603Z,67.10
2017-08-30T00:22:40.694Z,67.00
2017-08-30T00:23:13.212Z,67.00
2017-08-30T00:23:45.744Z,67.10
2017-08-30T00:24:30.303Z,67.60
2017-08-30T00:25:14.739Z,67.80
2017-08-30T00:25:59.088Z,67.90
2017-08-30T00:26:31.628Z,68.10
2017-08-30T00:27:04.151Z,68.20
2017-08-30T00:27:36.701Z,68.20
2017-08-30T00:28:10.223Z,68.20
2017-08-30T00:28:42.772Z,68.20
2017-08-30T00:29:15.281Z,68.10
2017-08-30T00:29:47.806Z,68.10
2017-08-30T00:30:20.336Z,68.10
2017-08-30T00:30:52.870Z,68.10
2017-08-30T00:31:25.421Z,68.20
2017-08-30T00:31:57.982Z,68.30
2017-08-30T00:32:31.280Z,68.40
2017-08-30T00:33:03.818Z,68.40
2017-08-30T00:33:36.391Z,68.10
2017-08-30T00:34:08.911Z,68.00
2017-08-30T00:34:41.438Z,68.10
2017-08-30T00:35:13.976Z,67.90
2017-08-30T00:35:46.516Z,67.40
2017-08-30T00:36:19.815Z,67.20
2017-08-30T00:36:52.357Z,67.20
2017-08-30T00:37:24.865Z,67.20
2017-08-30T00:37:58.188Z,67.30
2017-08-30T00:38:30.708Z,67.30
2017-08-30T00:39:03.249Z,67.30
2017-08-30T00:39:35.834Z,67.20
2017-08-30T00:40:08.959Z,67.20
2017-08-30T00:40:41.474Z,67.30
2017-08-30T00:41:14.018Z,67.50
2017-08-30T00:41:46.556Z,67.70
2017-08-30T00:42:19.836Z,67.70
2017-08-30T00:42:52.367Z,67.00
2017-08-30T00:43:25.657Z,67.10
2017-08-30T00:43:58.189Z,67.10
2017-08-30T00:44:30.729Z,67.30
2017-08-30T00:45:03.276Z,67.20
2017-08-30T00:45:35.791Z,67.20
2017-08-30T00:46:08.293Z,67.30
2017-08-30T00:46:40.831Z,67.50
2017-08-30T00:47:13.370Z,67.60
2017-08-30T00:47:45.919Z,67.70
2017-08-30T00:48:18.445Z,67.60
2017-08-30T00:48:50.974Z,67.60
2017-08-30T00:49:24.253Z,68.10
2017-08-30T00:49:56.794Z,68.10
2017-08-30T00:50:29.312Z,68.50
2017-08-30T00:51:01.840Z,68.60
2017-08-30T00:51:34.381Z,68.40
2017-08-30T00:52:06.915Z,68.30
2017-08-30T00:52:39.437Z,68.40
2017-08-30T00:53:11.961Z,68.40
2017-08-30T00:53:44.518Z,68.50
2017-08-30T00:54:17.034Z,68.40
2017-08-30T00:54:49.570Z,68.40
2017-08-30T00:55:22.879Z,68.40
2017-08-30T00:55:55.400Z,68.60
2017-08-30T00:56:27.943Z,68.80
2017-08-30T00:57:00.474Z,68.70
2017-08-30T00:57:33.238Z,68.60
2017-08-30T00:58:05.748Z,68.60
2017-08-30T00:58:38.293Z,68.50
2017-08-30T00:59:10.810Z,68.40
2017-08-30T00:59:43.332Z,68.30
2017-08-30T01:00:15.855Z,68.40
2017-08-30T01:00:49.266Z,68.40
2017-08-30T01:01:21.775Z,68.40
2017-08-30T01:01:54.343Z,68.30
2017-08-30T01:02:26.889Z,68.30
2017-08-30T01:02:59.450Z,68.30
2017-08-30T01:03:31.962Z,68.40
2017-08-30T01:04:04.483Z,68.40
2017-08-30T01:04:37.792Z,68.30
2017-08-30T01:05:10.335Z,68.40
2017-08-30T01:05:42.857Z,68.30
2017-08-30T01:06:15.950Z,68.30
2017-08-30T01:06:48.478Z,68.40
2017-08-30T01:07:21.004Z,68.40
2017-08-30T01:07:53.543Z,68.50
2017-08-30T01:08:26.076Z,68.60
2017-08-30T01:08:58.620Z,68.60
2017-08-30T01:09:31.922Z,68.80
2017-08-30T01:10:04.443Z,68.80
2017-08-30T01:10:36.987Z,68.90
2017-08-30T01:11:09.506Z,69.00
2017-08-30T01:11:42.823Z,69.60
2017-08-30T01:12:15.354Z,68.90
2017-08-30T01:12:47.888Z,69.10
2017-08-30T01:13:20.421Z,69.20
2017-08-30T01:13:52.959Z,69.10
2017-08-30T01:14:25.497Z,69.10
2017-08-30T01:14:58.795Z,69.40
2017-08-30T01:15:31.313Z,69.30
2017-08-30T01:16:03.863Z,69.40
2017-08-30T01:17:12.537Z,69.50
2017-08-30T01:17:45.053Z,69.60
2017-08-30T01:18:17.608Z,69.60
2017-08-30T01:18:50.141Z,69.70
2017-08-30T01:19:22.690Z,70.10
2017-08-30T01:19:55.209Z,69.80
2017-08-30T01:20:27.750Z,70.00
2017-08-30T01:21:00.273Z,69.90
2017-08-30T01:21:32.794Z,69.80
2017-08-30T01:22:05.346Z,69.80
2017-08-30T01:22:37.901Z,69.80
2017-08-30T01:23:10.440Z,69.80
2017-08-30T01:23:42.956Z,70.00
2017-08-30T01:24:16.288Z,70.10
2017-08-30T01:24:48.800Z,70.00
2017-08-30T01:25:21.323Z,70.00
2017-08-30T01:25:53.870Z,70.20
2017-08-30T01:26:27.293Z,71.00
2017-08-30T01:26:59.837Z,70.10
2017-08-30T01:27:32.395Z,70.10
2017-08-30T01:28:04.946Z,70.80
2017-08-30T01:28:37.456Z,70.00
2017-08-30T01:29:09.987Z,70.10
2017-08-30T01:29:42.512Z,70.20
2017-08-30T01:30:15.020Z,70.20
2017-08-30T01:30:47.549Z,70.50
2017-08-30T01:31:20.086Z,70.20
2017-08-30T01:31:52.621Z,70.20
2017-08-30T01:32:25.174Z,70.10
2017-08-30T01:32:57.719Z,70.00
2017-08-30T01:33:30.272Z,70.00
2017-08-30T01:34:02.818Z,69.80
2017-08-30T01:34:35.340Z,69.80
2017-08-30T01:35:07.877Z,70.00
2017-08-30T01:35:40.409Z,70.10
2017-08-30T01:36:12.948Z,70.10
2017-08-30T01:36:45.461Z,70.20
2017-08-30T01:37:17.995Z,70.20
2017-08-30T01:37:50.525Z,70.20
2017-08-30T01:38:23.061Z,70.00
2017-08-30T01:38:55.586Z,69.90
2017-08-30T01:39:28.099Z,70.00
2017-08-30T01:40:00.617Z,70.00
2017-08-30T01:40:33.126Z,70.00
2017-08-30T01:41:05.659Z,70.00
2017-08-30T01:41:38.198Z,70.10
2017-08-30T01:42:10.734Z,70.00
2017-08-30T01:42:43.269Z,70.10
2017-08-30T01:43:16.549Z,70.20
2017-08-30T01:43:49.059Z,70.20
2017-08-30T01:44:21.622Z,70.20
2017-08-30T01:44:54.148Z,70.30
2017-08-30T01:45:26.664Z,70.30
2017-08-30T01:45:59.197Z,70.30
2017-08-30T01:46:31.702Z,70.40
2017-08-30T01:47:04.234Z,70.50
2017-08-30T01:47:36.789Z,70.60
2017-08-30T01:48:09.337Z,70.70
2017-08-30T01:48:41.866Z,70.80
2017-08-30T01:49:14.416Z,70.80
2017-08-30T01:49:46.958Z,70.90
2017-08-30T01:50:19.495Z,71.00
2017-08-30T01:50:52.809Z,71.40
2017-08-30T01:51:25.339Z,71.30
2017-08-30T01:51:57.859Z,71.40
2017-08-30T01:52:30.396Z,71.50
2017-08-30T01:53:03.686Z,71.70
2017-08-30T01:53:36.210Z,71.60
2017-08-30T01:54:08.725Z,71.70
2017-08-30T01:54:41.245Z,71.70
2017-08-30T01:55:13.772Z,71.70
2017-08-30T01:55:46.323Z,71.70
2017-08-30T01:56:18.840Z,71.70
2017-08-30T01:56:51.368Z,71.50
2017-08-30T01:57:23.888Z,71.50
2017-08-30T01:57:56.450Z,71.50
2017-08-30T01:58:28.971Z,71.50
2017-08-30T01:59:01.517Z,71.50
2017-08-30T01:59:34.060Z,71.50
2017-08-30T02:00:06.587Z,71.50
2017-08-30T02:00:39.140Z,71.50
2017-08-30T02:01:11.690Z,71.40
2017-08-30T02:01:44.233Z,71.50
2017-08-30T02:02:16.770Z,71.50
2017-08-30T02:02:49.289Z,71.40
2017-08-30T02:03:21.811Z,71.60
2017-08-30T02:03:54.343Z,71.50
2017-08-30T02:04:26.860Z,71.50
2017-08-30T02:04:59.402Z,71.50
2017-08-30T02:05:31.921Z,71.40
2017-08-30T02:06:04.462Z,71.30
2017-08-30T02:06:36.977Z,71.20
2017-08-30T02:07:09.500Z,71.20
2017-08-30T02:07:42.027Z,71.30
2017-08-30T02:08:14.553Z,72.10
2017-08-30T02:08:47.086Z,71.20
2017-08-30T02:09:19.611Z,71.20
2017-08-30T02:09:52.148Z,71.20
2017-08-30T02:10:24.668Z,71.30
2017-08-30T02:10:57.182Z,71.40
2017-08-30T02:11:29.725Z,71.40
2017-08-30T02:12:02.257Z,71.40
2017-08-30T02:12:34.778Z,71.50
2017-08-30T02:13:07.307Z,71.30
2017-08-30T02:13:39.848Z,71.30
2017-08-30T02:14:12.361Z,71.30
2017-08-30T02:14:45.885Z,71.30
2017-08-30T02:15:18.422Z,71.30
2017-08-30T02:15:50.949Z,71.40
2017-08-30T02:16:23.479Z,71.30
2017-08-30T02:16:56.036Z,71.40
2017-08-30T02:17:28.573Z,71.40
2017-08-30T02:18:01.096Z,71.20
2017-08-30T02:18:33.625Z,71.30
2017-08-30T02:19:06.149Z,71.10
2017-08-30T02:19:38.685Z,71.10
2017-08-30T02:20:11.211Z,71.20
2017-08-30T02:20:43.744Z,71.40
2017-08-30T02:21:16.280Z,71.30
2017-08-30T02:21:48.908Z,71.20
2017-08-30T02:22:21.448Z,71.20
2017-08-30T02:22:53.989Z,71.10
2017-08-30T02:23:26.518Z,71.10
2017-08-30T02:23:59.053Z,71.10
2017-08-30T02:24:31.598Z,71.20
2017-08-30T02:25:04.128Z,71.20
2017-08-30T02:25:36.662Z,71.30
2017-08-30T02:26:09.975Z,71.20
2017-08-30T02:26:42.511Z,71.10
2017-08-30T02:27:15.026Z,71.20
2017-08-30T02:27:47.571Z,71.30
2017-08-30T02:28:20.103Z,71.40
2017-08-30T02:28:52.639Z,71.50
2017-08-30T02:29:25.237Z,71.60
2017-08-30T02:29:57.763Z,71.50
2017-08-30T02:30:30.296Z,71.50
2017-08-30T02:31:02.841Z,71.60
2017-08-30T02:31:35.349Z,71.80
2017-08-30T02:32:07.872Z,71.90
2017-08-30T02:32:40.397Z,71.90
2017-08-30T02:33:12.943Z,72.20
2017-08-30T02:33:45.486Z,72.20
2017-08-30T02:34:18.052Z,72.30
2017-08-30T02:34:50.618Z,72.60
2017-08-30T02:35:23.258Z,72.60
2017-08-30T02:35:55.778Z,72.70
2017-08-30T02:36:28.320Z,72.90
2017-08-30T02:37:00.847Z,72.80
2017-08-30T02:37:33.389Z,72.90
2017-08-30T02:38:05.950Z,73.00
2017-08-30T02:38:38.512Z,73.10
2017-08-30T02:39:11.049Z,73.20
2017-08-30T02:39:43.582Z,73.30
2017-08-30T02:40:16.089Z,73.20
2017-08-30T02:40:48.621Z,73.20
2017-08-30T02:41:21.143Z,73.20
2017-08-30T02:41:53.674Z,74.00
2017-08-30T02:42:26.192Z,73.30
2017-08-30T02:42:58.761Z,73.30
2017-08-30T02:43:31.304Z,73.30
2017-08-30T02:44:03.833Z,73.30
2017-08-30T02:44:36.382Z,73.30
2017-08-30T02:45:08.906Z,73.30
2017-08-30T02:45:41.432Z,73.30
2017-08-30T02:46:13.971Z,73.40
2017-08-30T02:46:46.493Z,73.50
2017-08-30T02:47:19.025Z,73.50
2017-08-30T02:47:51.568Z,74.20
2017-08-30T02:48:24.087Z,73.60
2017-08-30T02:48:56.614Z,73.80
2017-08-30T02:49:29.179Z,73.90
2017-08-30T02:50:01.753Z,74.20
2017-08-30T02:50:34.391Z,74.20
2017-08-30T02:51:06.944Z,75.00
2017-08-30T02:51:39.476Z,74.40
2017-08-30T02:52:12.595Z,74.30
2017-08-30T02:52:45.161Z,74.50
2017-08-30T02:53:17.719Z,74.50
2017-08-30T02:53:50.870Z,74.60
2017-08-30T02:54:23.405Z,74.60
2017-08-30T02:54:55.940Z,74.60
2017-08-30T02:55:28.470Z,74.60
2017-08-30T02:56:01.003Z,74.60
2017-08-30T02:56:33.560Z,74.90
2017-08-30T02:57:06.084Z,75.60
2017-08-30T02:57:38.611Z,75.00
2017-08-30T02:58:11.136Z,75.10
2017-08-30T02:58:43.664Z,75.20
2017-08-30T02:59:16.184Z,75.10
2017-08-30T02:59:49.485Z,75.20
2017-08-30T03:00:22.044Z,75.20
2017-08-30T03:00:54.562Z,75.20
2017-08-30T03:01:27.079Z,75.30
2017-08-30T03:01:59.609Z,75.20
2017-08-30T03:02:32.128Z,75.30
2017-08-30T03:03:04.657Z,75.40
2017-08-30T03:03:37.208Z,75.50
2017-08-30T03:04:09.753Z,75.50
2017-08-30T03:04:42.285Z,75.50
2017-08-30T03:05:14.833Z,75.50
2017-08-30T03:05:47.389Z,75.40
2017-08-30T03:06:19.903Z,75.50
2017-08-30T03:06:52.411Z,75.40
2017-08-30T03:07:24.943Z,75.30
2017-08-30T03:07:57.460Z,74.90
2017-08-30T03:08:29.989Z,75.10
2017-08-30T03:09:02.508Z,75.20
2017-08-30T03:09:35.070Z,75.20
2017-08-30T03:10:07.596Z,75.20
2017-08-30T03:10:40.143Z,75.10
2017-08-30T03:11:13.460Z,75.10
2017-08-30T03:11:45.982Z,75.00
2017-08-30T03:12:18.507Z,75.00
2017-08-30T03:12:51.032Z,74.80
2017-08-30T03:13:23.554Z,74.80
2017-08-30T03:13:56.095Z,74.80
2017-08-30T03:14:28.653Z,74.80
2017-08-30T03:15:01.167Z,74.70
2017-08-30T03:15:33.700Z,74.70
2017-08-30T03:16:06.264Z,74.60
2017-08-30T03:16:38.833Z,74.60
2017-08-30T03:17:11.352Z,74.50
2017-08-30T03:17:43.888Z,74.50
2017-08-30T03:18:16.465Z,74.40
2017-08-30T03:18:48.992Z,74.50
2017-08-30T03:19:21.525Z,74.40
2017-08-30T03:19:54.058Z,74.40
2017-08-30T03:20:26.579Z,74.40
2017-08-30T03:20:59.140Z,74.40
2017-08-30T03:21:31.657Z,74.50
2017-08-30T03:22:04.201Z,74.50
2017-08-30T03:22:36.723Z,74.50
2017-08-30T03:23:09.243Z,74.30
2017-08-30T03:23:41.773Z,74.20
2017-08-30T03:24:14.303Z,74.10
2017-08-30T03:24:46.848Z,74.80
2017-08-30T03:25:19.366Z,74.80
2017-08-30T03:25:51.931Z,74.10
2017-08-30T03:26:24.470Z,74.00
2017-08-30T03:26:56.989Z,73.90
2017-08-30T03:27:29.528Z,73.80
2017-08-30T03:28:02.049Z,73.80
2017-08-30T03:28:34.573Z,73.90
2017-08-30T03:29:07.102Z,73.90
2017-08-30T03:29:39.613Z,73.90
2017-08-30T03:30:12.901Z,73.90
2017-08-30T03:30:45.434Z,73.90
2017-08-30T03:31:17.966Z,73.80
2017-08-30T03:31:50.502Z,73.90
2017-08-30T03:32:23.019Z,73.90
2017-08-30T03:32:55.560Z,73.90
2017-08-30T03:33:28.122Z,73.90
2017-08-30T03:34:00.655Z,73.90
2017-08-30T03:34:33.200Z,74.00
2017-08-30T03:35:05.754Z,74.20
2017-08-30T03:35:38.280Z,74.30
2017-08-30T03:36:10.797Z,74.50
2017-08-30T03:36:43.322Z,74.70
2017-08-30T03:37:15.864Z,74.80
2017-08-30T03:37:48.409Z,74.90
2017-08-30T03:38:22.344Z,75.20
2017-08-30T03:38:54.904Z,75.10
2017-08-30T03:39:27.433Z,75.20
2017-08-30T03:39:59.958Z,75.40
2017-08-30T03:40:32.471Z,75.60
2017-08-30T03:41:05.008Z,75.70
2017-08-30T03:41:37.517Z,75.80
2017-08-30T03:42:10.044Z,75.90
2017-08-30T03:42:42.563Z,75.80
2017-08-30T03:43:15.073Z,75.70
2017-08-30T03:43:47.612Z,75.70
2017-08-30T03:44:20.787Z,75.70
2017-08-30T03:44:53.303Z,75.70
2017-08-30T03:45:25.830Z,75.50
2017-08-30T03:45:58.381Z,75.50
2017-08-30T03:46:31.020Z,75.50
2017-08-30T03:47:03.601Z,75.50
2017-08-30T03:47:36.123Z,75.50
2017-08-30T03:48:08.674Z,75.50
2017-08-30T03:48:41.196Z,75.40
2017-08-30T03:49:13.750Z,75.40
2017-08-30T03:49:46.271Z,75.40
2017-08-30T03:50:18.794Z,75.60
2017-08-30T03:50:51.576Z,75.60
2017-08-30T03:51:24.109Z,75.80
2017-08-30T03:51:56.668Z,75.80
2017-08-30T03:52:29.202Z,75.90
2017-08-30T03:53:01.755Z,76.00
2017-08-30T03:53:34.275Z,76.20
2017-08-30T03:54:06.829Z,76.30
2017-08-30T03:54:39.435Z,76.20
2017-08-30T03:55:11.999Z,76.30
2017-08-30T03:55:44.532Z,76.20
2017-08-30T03:56:17.049Z,76.20
2017-08-30T03:56:49.603Z,76.20
2017-08-30T03:57:22.136Z,76.10
2017-08-30T03:57:54.651Z,76.10
2017-08-30T03:58:27.171Z,76.10
2017-08-30T03:58:59.712Z,76.20
2017-08-30T03:59:33.022Z,76.20
2017-08-30T04:00:05.599Z,76.20
2017-08-30T04:00:38.167Z,76.10
2017-08-30T04:01:10.696Z,76.10
2017-08-30T04:01:44.024Z,76.30
2017-08-30T04:02:16.568Z,76.20
2017-08-30T04:02:49.102Z,76.30
2017-08-30T04:03:21.660Z,76.50
2017-08-30T04:03:54.175Z,76.60
2017-08-30T04:04:26.715Z,76.70
2017-08-30T04:04:59.236Z,76.90
2017-08-30T04:05:31.790Z,77.20
2017-08-30T04:06:04.325Z,77.20
2017-08-30T04:06:36.842Z,77.20
2017-08-30T04:07:09.377Z,77.10
2017-08-30T04:07:41.896Z,77.20
2017-08-30T04:08:14.412Z,77.30
2017-08-30T04:08:46.925Z,77.30
2017-08-30T04:09:19.448Z,77.10
2017-08-30T04:09:51.982Z,77.20
2017-08-30T04:10:24.506Z,77.30
2017-08-30T04:10:57.062Z,77.20
2017-08-30T04:11:29.584Z,77.10
2017-08-30T04:12:02.143Z,77.30
2017-08-30T04:12:34.651Z,77.20
2017-08-30T04:13:07.156Z,77.10
2017-08-30T04:13:39.682Z,77.10
2017-08-30T04:14:12.240Z,77.10
2017-08-30T04:14:44.752Z,77.00
2017-08-30T04:15:17.329Z,77.00
2017-08-30T04:15:49.873Z,76.80
2017-08-30T04:16:22.598Z,76.80
2017-08-30T04:16:55.121Z,76.70
2017-08-30T04:17:27.666Z,76.70
2017-08-30T04:18:00.205Z,76.60
2017-08-30T04:18:32.730Z,76.40
2017-08-30T04:19:05.252Z,76.40
2017-08-30T04:19:37.768Z,76.40
2017-08-30T04:20:10.318Z,76.30
2017-08-30T04:20:42.836Z,76.10
2017-08-30T04:21:15.482Z,76.10
2017-08-30T04:21:48.237Z,76.00
2017-08-30T04:22:20.806Z,76.00
2017-08-30T04:22:53.344Z,76.10
2017-08-30T04:23:25.903Z,76.00
2017-08-30T04:23:58.423Z,76.00
2017-08-30T04:24:30.941Z,76.00
2017-08-30T04:25:03.469Z,75.90
2017-08-30T04:25:35.997Z,75.90
2017-08-30T04:26:08.533Z,75.80
2017-08-30T04:26:41.062Z,75.80
2017-08-30T04:27:13.686Z,75.80
2017-08-30T04:27:46.214Z,75.80
2017-08-30T04:28:18.793Z,75.80
2017-08-30T04:28:51.325Z,75.80
2017-08-30T04:29:23.852Z,75.60
2017-08-30T04:29:56.381Z,75.50
2017-08-30T04:30:28.906Z,75.50
2017-08-30T04:31:01.414Z,75.50
2017-08-30T04:31:33.957Z,75.50
2017-08-30T04:32:06.492Z,75.40
2017-08-30T04:32:39.062Z,75.30
2017-08-30T04:33:11.589Z,75.30
2017-08-30T04:33:44.105Z,75.20
2017-08-30T04:34:16.638Z,75.20
2017-08-30T04:34:49.168Z,75.20
2017-08-30T04:35:21.691Z,75.10
2017-08-30T04:35:54.222Z,75.10
2017-08-30T04:36:26.723Z,75.10
2017-08-30T04:36:59.247Z,75.00
2017-08-30T04:37:31.789Z,75.00
2017-08-30T04:38:04.357Z,74.90
2017-08-30T04:38:36.916Z,74.80
2017-08-30T04:39:09.445Z,74.80
2017-08-30T04:45:44.383Z,75.20
2017-08-30T04:46:16.928Z,75.40
2017-08-30T04:46:49.454Z,75.50
2017-08-30T04:47:21.988Z,75.70
2017-08-30T04:47:54.542Z,76.00
2017-08-30T04:48:27.063Z,76.00
2017-08-30T04:48:59.587Z,76.20
2017-08-30T04:49:32.135Z,76.40
2017-08-30T04:50:04.681Z,76.60
2017-08-30T04:50:37.212Z,76.80
2017-08-30T04:51:09.766Z,77.00
2017-08-30T04:51:42.297Z,77.10
2017-08-30T04:52:14.844Z,77.30
2017-08-30T04:52:47.383Z,77.30
2017-08-30T04:53:19.920Z,77.50
2017-08-30T04:53:52.438Z,77.50
2017-08-30T04:54:24.964Z,77.60
2017-08-30T04:54:57.505Z,77.60
2017-08-30T04:55:30.047Z,77.70
2017-08-30T04:56:02.589Z,77.80
2017-08-30T04:56:35.892Z,77.80
2017-08-30T04:57:08.430Z,77.80
2017-08-30T04:57:40.962Z,78.50
2017-08-30T04:58:13.493Z,77.70
2017-08-30T04:58:46.030Z,77.70
2017-08-30T04:59:18.584Z,77.60
2017-08-30T04:59:51.104Z,77.50
2017-08-30T05:00:23.670Z,78.20
2017-08-30T05:00:56.198Z,77.50
2017-08-30T05:01:28.733Z,77.40
2017-08-30T05:02:01.271Z,77.30
2017-08-30T05:02:33.800Z,77.10
2017-08-30T05:03:06.347Z,77.00
2017-08-30T05:03:38.890Z,77.00
2017-08-30T05:04:11.472Z,76.90
2017-08-30T05:04:44.031Z,76.80
2017-08-30T05:05:16.581Z,76.70
2017-08-30T05:05:49.114Z,76.60
2017-08-30T05:06:21.639Z,76.40
2017-08-30T05:06:54.177Z,76.30
2017-08-30T05:07:26.725Z,76.30
2017-08-30T05:07:59.260Z,76.20
2017-08-30T05:08:31.776Z,76.30
2017-08-30T05:09:04.300Z,76.20
2017-08-30T05:09:36.829Z,76.20
2017-08-30T05:10:09.364Z,76.10
2017-08-30T05:10:41.867Z,76.10
2017-08-30T05:11:14.408Z,76.00
2017-08-30T05:15:48.947Z,75.50
2017-08-30T05:16:21.491Z,75.40
2017-08-30T05:16:53.996Z,75.60
2017-08-30T05:17:26.533Z,75.50
2017-08-30T05:17:59.115Z,75.60
2017-08-30T05:18:31.641Z,75.60
2017-08-30T05:19:04.164Z,75.60
2017-08-30T05:19:36.755Z,75.70
2017-08-30T05:20:09.278Z,75.90
2017-08-30T05:20:41.798Z,75.90
2017-08-30T05:21:14.363Z,76.20
2017-08-30T05:21:46.908Z,76.20
2017-08-30T05:22:19.466Z,76.00
2017-08-30T05:22:51.995Z,75.90
2017-08-30T05:23:24.536Z,75.90
2017-08-30T05:23:57.132Z,75.90
2017-08-30T05:24:29.662Z,75.90
2017-08-30T05:25:02.215Z,75.90
2017-08-30T05:25:35.570Z,76.00
2017-08-30T05:26:08.086Z,76.00
2017-08-30T05:26:40.629Z,76.10
2017-08-30T05:27:13.169Z,76.20
2017-08-30T05:27:45.689Z,76.20
2017-08-30T05:28:18.215Z,76.40
2017-08-30T05:28:50.747Z,76.50
2017-08-30T05:29:23.301Z,76.50
2017-08-30T05:29:55.832Z,76.50
2017-08-30T05:30:28.389Z,76.70
2017-08-30T05:31:00.924Z,76.70
2017-08-30T05:31:33.447Z,76.80
2017-08-30T05:32:05.988Z,77.00
2017-08-30T05:32:38.629Z,77.10
2017-08-30T05:33:11.175Z,77.10
2017-08-30T05:33:43.721Z,77.00
2017-08-30T05:34:16.243Z,77.00
2017-08-30T05:34:48.945Z,77.00
2017-08-30T05:35:21.509Z,77.00
2017-08-30T05:35:54.039Z,76.90
2017-08-30T05:36:26.664Z,76.70
2017-08-30T05:36:59.186Z,76.60
2017-08-30T05:37:31.723Z,76.70
2017-08-30T05:38:04.287Z,76.60
2017-08-30T05:38:37.693Z,76.50
2017-08-30T05:39:10.245Z,76.10
2017-08-30T05:39:42.785Z,75.90
2017-08-30T05:40:15.354Z,75.70
2017-08-30T05:40:47.875Z,75.50
2017-08-30T05:41:20.440Z,75.30
2017-08-30T05:41:53.007Z,75.00
2017-08-30T05:42:25.557Z,74.90
2017-08-30T05:42:58.113Z,74.70
2017-08-30T05:43:31.184Z,74.50
2017-08-30T05:44:03.708Z,74.40
2017-08-30T05:44:37.206Z,74.50
2017-08-30T05:45:09.774Z,74.50
2017-08-30T05:45:43.094Z,74.20
2017-08-30T05:46:15.663Z,74.10
2017-08-30T05:46:48.209Z,74.00
2017-08-30T05:47:20.733Z,73.80
2017-08-30T05:47:53.264Z,73.70
2017-08-30T05:48:25.794Z,73.70
2017-08-30T05:48:58.351Z,73.60
2017-08-30T05:49:30.928Z,73.50
2017-08-30T05:50:03.521Z,73.50
2017-08-30T05:50:36.156Z,73.40
2017-08-30T05:51:08.704Z,73.00
2017-08-30T05:51:41.253Z,72.50
2017-08-30T05:52:13.792Z,72.50
2017-08-30T05:52:46.313Z,72.40
2017-08-30T05:53:18.899Z,72.40
2017-08-30T05:53:51.435Z,72.30
2017-08-30T05:54:23.996Z,72.30
2017-08-30T05:54:56.519Z,72.10
2017-08-30T05:55:29.097Z,72.00
2017-08-30T05:56:01.676Z,71.90
2017-08-30T05:56:34.202Z,71.80
2017-08-30T05:57:06.734Z,71.70
2017-08-30T05:57:39.270Z,71.50
2017-08-30T05:58:11.801Z,71.20
2017-08-30T05:58:44.340Z,71.10
2017-08-30T05:59:16.902Z,71.20
2017-08-30T05:59:49.451Z,71.10
2017-08-30T06:00:21.950Z,70.80
2017-08-30T06:00:54.483Z,70.80
2017-08-30T06:01:27.018Z,70.70
2017-08-30T06:01:59.561Z,70.50
2017-08-30T06:02:32.097Z,70.50
2017-08-30T06:03:04.630Z,70.50
2017-08-30T06:03:37.163Z,70.10
2017-08-30T06:04:09.696Z,69.80
2017-08-30T06:04:42.225Z,69.90
2017-08-30T06:05:15.293Z,69.80
2017-08-30T06:05:47.834Z,69.70
2017-08-30T06:06:20.389Z,69.60
2017-08-30T06:06:52.949Z,69.40
2017-08-30T06:07:25.468Z,69.30
2017-08-30T06:07:58.813Z,69.20
2017-08-30T06:08:31.338Z,69.20
2017-08-30T06:09:03.901Z,68.90
2017-08-30T06:09:36.481Z,68.80
2017-08-30T06:10:09.785Z,69.10
2017-08-30T06:10:42.342Z,69.10
2017-08-30T06:11:14.871Z,68.60
2017-08-30T06:11:47.401Z,68.40
2017-08-30T06:12:19.940Z,68.30
2017-08-30T06:12:52.573Z,68.20
2017-08-30T06:13:25.158Z,68.10
2017-08-30T06:13:57.729Z,68.10
2017-08-30T06:14:30.301Z,68.20
2017-08-30T06:15:02.865Z,68.20
2017-08-30T06:15:35.403Z,68.20
2017-08-30T06:16:07.983Z,68.00
2017-08-30T06:16:40.707Z,68.60
2017-08-30T06:17:13.259Z,67.70
2017-08-30T06:17:45.785Z,67.40
2017-08-30T06:18:18.343Z,67.30
2017-08-30T06:18:50.933Z,67.40
2017-08-30T06:19:23.527Z,67.50
2017-08-30T06:19:56.065Z,67.60
2017-08-30T06:20:28.591Z,67.40
2017-08-30T06:21:01.110Z,67.20
2017-08-30T06:21:33.661Z,67.30
2017-08-30T06:22:06.236Z,67.30
2017-08-30T06:22:38.812Z,67.40
2017-08-30T06:23:11.354Z,67.50
2017-08-30T06:23:43.877Z,67.30
2017-08-30T06:24:16.394Z,67.30
2017-08-30T06:24:48.912Z,67.30
2017-08-30T06:25:21.439Z,67.30
2017-08-30T06:25:53.939Z,67.10
2017-08-30T06:26:26.479Z,66.80
2017-08-30T06:26:59.026Z,66.70
2017-08-30T06:27:31.674Z,66.70
2017-08-30T06:28:04.186Z,66.70
2017-08-30T06:28:36.769Z,66.70
2017-08-30T06:29:09.317Z,66.00
2017-08-30T06:29:41.872Z,65.80
2017-08-30T06:30:14.405Z,66.00
2017-08-30T06:30:46.950Z,66.30
2017-08-30T06:31:19.484Z,66.40
2017-08-30T06:31:52.098Z,66.40
2017-08-30T06:32:24.661Z,66.00
2017-08-30T06:32:57.189Z,65.80
2017-08-30T06:33:29.740Z,65.80
2017-08-30T06:34:02.264Z,65.80
2017-08-30T06:34:34.815Z,65.60
2017-08-30T06:35:07.376Z,65.40
2017-08-30T06:35:39.903Z,65.40
2017-08-30T06:36:12.510Z,65.40
2017-08-30T06:36:45.063Z,65.20
2017-08-30T06:37:17.638Z,65.00
2017-08-30T06:37:50.189Z,65.00
2017-08-30T06:38:22.737Z,64.80
2017-08-30T06:38:55.268Z,64.80
2017-08-30T06:39:27.791Z,64.80
2017-08-30T06:40:00.337Z,64.80
2017-08-30T06:40:32.860Z,64.70
2017-08-30T06:41:05.413Z,64.80
2017-08-30T06:41:37.945Z,64.90
2017-08-30T06:42:10.475Z,65.00
2017-08-30T06:42:42.999Z,65.20
2017-08-30T06:43:15.620Z,65.10
2017-08-30T06:43:48.205Z,64.80
2017-08-30T06:44:20.740Z,64.80
2017-08-30T06:44:53.269Z,64.80
2017-08-30T06:45:25.825Z,64.50
2017-08-30T06:45:58.930Z,63.80
2017-08-30T06:46:31.473Z,64.10
2017-08-30T06:47:04.040Z,64.30
2017-08-30T06:47:36.647Z,64.30
2017-08-30T06:48:09.757Z,64.30
2017-08-30T06:48:42.290Z,63.60
2017-08-30T06:49:14.826Z,63.90
2017-08-30T06:49:47.354Z,63.80
2017-08-30T06:50:19.939Z,63.90
2017-08-30T06:50:52.468Z,64.00
2017-08-30T06:51:25.063Z,63.70
2017-08-30T06:51:57.590Z,63.10
2017-08-30T06:52:30.150Z,63.10
2017-08-30T06:53:02.689Z,63.20
2017-08-30T06:53:35.221Z,63.50
2017-08-30T06:54:07.792Z,63.60
2017-08-30T06:54:40.325Z,63.60
2017-08-30T06:55:12.866Z,63.60
2017-08-30T06:55:45.378Z,63.50
2017-08-30T06:56:17.904Z,63.40
2017-08-30T06:56:50.469Z,63.20
2017-08-30T06:57:23.011Z,62.90
2017-08-30T06:57:55.570Z,62.90
2017-08-30T06:58:28.133Z,62.40
2017-08-30T06:59:00.652Z,62.40
2017-08-30T06:59:33.203Z,62.50
2017-08-30T07:00:05.755Z,62.60
2017-08-30T07:00:38.720Z,62.50
2017-08-30T07:01:11.371Z,62.50
2017-08-30T07:01:43.873Z,62.60
2017-08-30T07:02:16.384Z,62.70
2017-08-30T07:02:48.938Z,62.50
2017-08-30T07:03:22.262Z,62.30
2017-08-30T07:03:54.822Z,62.30
2017-08-30T07:04:27.437Z,62.50
2017-08-30T07:05:00.007Z,62.30
2017-08-30T07:05:32.537Z,62.10
2017-08-30T07:06:05.034Z,62.20
2017-08-30T07:06:37.563Z,63.00
2017-08-30T07:07:10.111Z,62.40
2017-08-30T07:07:42.700Z,62.30
2017-08-30T07:08:15.212Z,62.00
2017-08-30T07:08:47.736Z,62.10
2017-08-30T07:09:20.270Z,62.20
2017-08-30T07:09:52.799Z,62.40
2017-08-30T07:10:25.366Z,62.30
2017-08-30T07:10:57.901Z,62.00